Time;durP1;ratioP1;P1;durP2;ratioP2;P2;SDS_P1;SDS_P2;PMS_P1;PMS_P2;Temp;Humidity;BMP_temperature;BMP_pressure;BME280_temperature;BME280_humidity;BME280_pressure;Samples;Min_cycle;Max_cycle;Signal;HPM_P1;HPM_P2
2022/12/10 00:01:56;;;;;;;55.08;19.38;;;;;;;-4.14;100.00;100782.50;5030053;28;20033;-69
2022/12/10 00:04:22;;;;;;;48.67;19.83;;;;;;;-4.17;100.00;100792.28;5029867;28;20101;-69
2022/12/10 00:06:47;;;;;;;47.80;18.88;;;;;;;-4.20;100.00;100787.00;5043766;28;20068;-69
2022/12/10 00:09:16;;;;;;;52.00;19.60;;;;;;;-4.22;100.00;100780.84;5045076;28;20037;-70
2022/12/10 00:11:42;;;;;;;52.03;19.42;;;;;;;-4.24;100.00;100788.84;5039106;28;20525;-69
2022/12/10 00:14:08;;;;;;;49.15;18.52;;;;;;;-4.24;100.00;100795.94;5047359;28;20028;-69
2022/12/10 00:16:34;;;;;;;53.90;19.40;;;;;;;-4.23;100.00;100800.34;5049813;28;20519;-69
2022/12/10 00:19:00;;;;;;;50.40;19.30;;;;;;;-4.21;100.00;100791.44;5045447;28;20029;-69
2022/12/10 00:21:28;;;;;;;56.33;18.02;;;;;;;-4.18;100.00;100793.19;5044355;28;20049;-69
2022/12/10 00:23:54;;;;;;;57.17;19.58;;;;;;;-4.15;100.00;100793.13;5029354;28;20028;-70
2022/12/10 00:26:22;;;;;;;42.50;18.40;;;;;;;-4.13;100.00;100797.53;5028138;28;20393;-69
2022/12/10 00:28:48;;;;;;;51.85;17.85;;;;;;;-4.10;100.00;100796.63;5037951;28;20359;-69
2022/12/10 00:31:16;;;;;;;48.63;18.13;;;;;;;-4.11;100.00;100794.84;5047955;28;20032;-69
2022/12/10 00:33:43;;;;;;;48.33;18.02;;;;;;;-4.09;100.00;100800.16;5029807;28;20156;-69
2022/12/10 00:36:12;;;;;;;49.95;18.15;;;;;;;-4.13;100.00;100807.28;5028264;28;20039;-69
2022/12/10 00:38:39;;;;;;;45.67;16.48;;;;;;;-4.16;100.00;100802.00;5044956;28;20038;-69
2022/12/10 00:41:05;;;;;;;46.42;17.92;;;;;;;-4.18;100.00;100806.47;5032493;28;20082;-69
2022/12/10 00:43:33;;;;;;;56.88;20.05;;;;;;;-4.18;100.00;100807.34;5042801;28;20033;-69
2022/12/10 00:45:58;;;;;;;48.28;18.00;;;;;;;-4.19;100.00;100800.28;5028952;28;20554;-69
2022/12/10 00:48:24;;;;;;;42.35;16.55;;;;;;;-4.19;100.00;100794.97;5027943;28;20029;-69
2022/12/10 00:51:01;;;;;;;51.30;17.45;;;;;;;-4.17;100.00;100786.97;5029101;28;20038;-70
2022/12/10 00:53:29;;;;;;;44.30;16.40;;;;;;;-4.17;100.00;100798.47;5027753;28;20041;-69
2022/12/10 00:55:56;;;;;;;54.10;20.02;;;;;;;-4.19;100.00;100789.66;5030237;28;20052;-70
2022/12/10 00:58:22;;;;;;;45.40;17.92;;;;;;;-4.21;100.00;100778.16;5032181;28;20048;-69
2022/12/10 01:00:47;;;;;;;48.88;19.20;;;;;;;-4.21;100.00;100786.13;5029120;28;20076;-70
2022/12/10 01:03:13;;;;;;;50.40;19.52;;;;;;;-4.25;100.00;100779.09;5028410;28;20467;-70
2022/12/10 01:05:39;;;;;;;55.45;19.08;;;;;;;-4.26;100.00;100773.81;5029637;28;20041;-69
2022/12/10 01:08:04;;;;;;;51.97;19.27;;;;;;;-4.27;100.00;100772.06;5049084;28;20376;-69
2022/12/10 01:10:30;;;;;;;52.03;20.10;;;;;;;-4.27;100.00;100780.03;5068788;28;20514;-69
2022/12/10 01:12:55;;;;;;;52.17;17.73;;;;;;;-4.31;100.00;100779.19;5042781;28;20450;-69
2022/12/10 01:15:22;;;;;;;49.33;18.25;;;;;;;-4.32;100.00;100785.41;5028749;28;20030;-69
2022/12/10 01:17:48;;;;;;;48.22;17.42;;;;;;;-4.36;100.00;100773.94;5036748;28;20550;-69
2022/12/10 01:20:13;;;;;;;47.95;18.65;;;;;;;-4.36;100.00;100781.03;5051710;28;20035;-70
2022/12/10 01:22:39;;;;;;;45.42;18.20;;;;;;;-4.37;100.00;100785.47;5040034;28;20039;-69
2022/12/10 01:25:04;;;;;;;47.55;17.17;;;;;;;-4.37;100.00;100789.88;5031201;28;20128;-69
2022/12/10 01:27:30;;;;;;;58.45;19.63;;;;;;;-4.40;100.00;100798.75;5027407;28;20493;-69
2022/12/10 01:29:55;;;;;;;49.50;18.77;;;;;;;-4.40;100.00;100795.22;5042684;28;20033;-69
2022/12/10 01:32:21;;;;;;;51.58;17.77;;;;;;;-4.41;100.00;100801.44;5026623;28;20037;-69
2022/12/10 01:34:46;;;;;;;49.50;18.08;;;;;;;-4.47;100.00;100797.09;5025617;28;20025;-69
2022/12/10 01:37:11;;;;;;;49.63;18.27;;;;;;;-4.40;100.00;100805.84;5028010;28;20144;-69
2022/12/10 01:39:37;;;;;;;53.70;19.15;;;;;;;-4.43;100.00;100801.47;5036027;28;20029;-69
2022/12/10 01:42:03;;;;;;;54.78;18.60;;;;;;;-4.42;100.00;100807.66;5045469;28;20036;-69
2022/12/10 01:44:28;;;;;;;52.03;20.13;;;;;;;-4.39;100.00;100803.16;5039088;28;20056;-69
2022/12/10 01:46:56;;;;;;;53.45;19.95;;;;;;;-4.40;100.00;100800.53;5025771;28;20128;-69
2022/12/10 01:49:36;;;;;;;52.80;19.55;;;;;;;-4.38;100.00;100791.66;5026550;28;20022;-69
2022/12/10 01:52:04;;;;;;;55.10;19.58;;;;;;;-4.35;100.00;100801.34;5027266;28;20383;-69
2022/12/10 01:54:32;;;;;;;56.42;19.50;;;;;;;-4.33;100.00;100804.88;5035912;28;20041;-69
2022/12/10 01:57:07;;;;;;;51.72;19.92;;;;;;;-4.32;100.00;100806.63;5041876;28;20064;-69
2022/12/10 01:59:34;;;;;;;52.67;18.00;;;;;;;-4.30;100.00;100812.78;5036301;28;20878;-69
2022/12/10 02:02:14;;;;;;;49.42;18.20;;;;;;;-4.24;100.00;100810.09;5041847;28;20025;-69
2022/12/10 02:05:02;;;;;;;57.30;20.60;;;;;;;-4.17;100.00;100813.53;5036160;28;20514;-69
2022/12/10 02:08:03;;;;;;;57.97;22.20;;;;;;;-4.13;100.00;100809.94;5044934;28;20586;-69
2022/12/10 02:10:32;;;;;;;58.53;21.55;;;;;;;-4.08;100.00;100809.88;5017944;28;20056;-69
2022/12/10 02:13:02;;;;;;;71.15;23.17;;;;;;;-4.04;100.00;100809.81;5037390;28;20030;-69
2022/12/10 02:15:32;;;;;;;67.35;21.15;;;;;;;-3.96;100.00;100807.94;5026152;28;20038;-69
2022/12/10 02:18:05;;;;;;;65.28;21.65;;;;;;;-3.90;100.00;100812.28;5039784;28;20729;-69
2022/12/10 02:20:39;;;;;;;68.32;22.60;;;;;;;-3.84;100.00;100814.84;5026159;28;20047;-69
2022/12/10 02:23:11;;;;;;;68.63;24.95;;;;;;;-3.81;100.00;100806.84;5026239;28;20037;-69
2022/12/10 02:25:55;;;;;;;66.28;22.02;;;;;;;-3.77;100.00;100808.56;5026893;28;20132;-69
2022/12/10 02:28:45;;;;;;;59.05;21.45;;;;;;;-3.76;100.00;100806.78;5043986;28;20037;-69
2022/12/10 02:31:14;;;;;;;70.38;22.17;;;;;;;-3.71;100.00;100807.59;5046392;28;20037;-69
2022/12/10 02:33:44;;;;;;;67.40;23.10;;;;;;;-3.69;100.00;100808.44;5041869;28;20037;-69
2022/12/10 02:36:13;;;;;;;63.28;20.33;;;;;;;-3.71;100.00;100805.81;5026301;28;20044;-69
2022/12/10 02:38:41;;;;;;;71.13;23.75;;;;;;;-3.69;100.00;100808.44;5039089;28;20033;-69
2022/12/10 02:41:17;;;;;;;62.22;23.50;;;;;;;-3.66;100.00;100811.94;5045342;28;20514;-69
2022/12/10 02:43:47;;;;;;;78.38;23.13;;;;;;;-3.62;100.00;100812.78;5018124;28;20104;-70
2022/12/10 02:46:13;;;;;;;60.25;21.88;;;;;;;-3.59;100.00;100804.75;5026820;28;20033;-70
2022/12/10 02:48:40;;;;;;;70.25;23.25;;;;;;;-3.55;100.00;100810.88;5024993;28;20162;-69
2022/12/10 02:51:06;;;;;;;70.47;24.38;;;;;;;-3.54;100.00;100802.00;5025278;28;20327;-69
2022/12/10 02:53:32;;;;;;;72.43;24.48;;;;;;;-3.52;100.00;100803.75;5041198;28;20115;-70
2022/12/10 02:56:13;;;;;;;65.75;22.17;;;;;;;-3.47;100.00;100811.66;5025120;28;20408;-69
2022/12/10 02:59:11;;;;;;;68.90;24.13;;;;;;;-3.44;100.00;100809.84;5041097;28;20417;-70
2022/12/10 03:01:58;;;;;;;76.78;24.48;;;;;;;-3.41;100.00;100811.53;5025438;28;20128;-69
2022/12/10 03:05:00;;;;;;;65.93;23.67;;;;;;;-3.39;100.00;100817.75;5023927;28;20057;-70
2022/12/10 03:07:35;;;;;;;75.30;23.27;;;;;;;-3.37;100.00;100816.78;5025956;28;20551;-70
2022/12/10 03:10:15;;;;;;;74.10;24.58;;;;;;;-3.35;100.00;100812.34;5026591;28;20554;-70
2022/12/10 03:12:48;;;;;;;72.28;24.05;;;;;;;-3.31;100.00;100809.63;5039609;28;20037;-70
2022/12/10 03:15:15;;;;;;;73.32;24.58;;;;;;;-3.30;100.00;100808.72;5026606;28;20477;-70
2022/12/10 03:17:43;;;;;;;80.60;25.17;;;;;;;-3.26;100.00;100807.78;5026259;28;20017;-70
2022/12/10 03:20:12;;;;;;;78.57;24.77;;;;;;;-3.23;100.00;100818.34;5043643;28;20037;-70
2022/12/10 03:22:39;;;;;;;75.78;23.60;;;;;;;-3.21;100.00;100812.13;5044270;28;20555;-70
2022/12/10 03:25:07;;;;;;;70.43;23.88;;;;;;;-3.20;100.00;100808.56;5034767;28;20044;-70
2022/12/10 03:27:33;;;;;;;82.00;24.42;;;;;;;-3.16;100.00;100812.03;5027809;28;20504;-70
2022/12/10 03:30:00;;;;;;;69.15;25.38;;;;;;;-3.16;100.00;100804.94;5027715;28;20044;-70
2022/12/10 03:32:27;;;;;;;73.90;24.27;;;;;;;-3.12;100.00;100811.97;5025818;28;20465;-70
2022/12/10 03:34:56;;;;;;;65.63;23.42;;;;;;;-3.12;100.00;100811.97;5025364;28;20042;-70
2022/12/10 03:37:22;;;;;;;79.57;25.60;;;;;;;-3.09;100.00;100805.69;5024679;28;20038;-71
2022/12/10 03:39:48;;;;;;;68.72;24.73;;;;;;;-3.09;100.00;100809.22;5025017;28;20041;-71
2022/12/10 03:42:14;;;;;;;77.90;24.50;;;;;;;-3.07;100.00;100806.56;5051670;28;20539;-71
2022/12/10 03:44:42;;;;;;;70.80;22.45;;;;;;;-3.06;100.00;100808.31;5043822;28;20037;-70
2022/12/10 03:47:12;;;;;;;68.47;22.38;;;;;;;-3.04;100.00;100816.25;5028434;28;20507;-71
2022/12/10 03:49:37;;;;;;;77.38;24.88;;;;;;;-3.02;100.00;100820.66;5027478;28;20029;-70
2022/12/10 03:52:03;;;;;;;75.72;23.52;;;;;;;-3.00;100.00;100821.50;5030316;28;20170;-70
2022/12/10 03:54:28;;;;;;;75.97;24.00;;;;;;;-3.01;100.00;100824.19;5029176;28;20485;-71
2022/12/10 03:56:54;;;;;;;85.30;26.35;;;;;;;-3.01;100.00;100824.19;5029994;28;20120;-70
2022/12/10 03:59:19;;;;;;;89.03;24.95;;;;;;;-2.98;100.00;100834.81;5025124;28;20518;-70
2022/12/10 04:01:44;;;;;;;81.47;23.88;;;;;;;-2.97;100.00;100831.22;5029689;28;20041;-71
2022/12/10 04:04:10;;;;;;;73.32;22.90;;;;;;;-2.97;100.00;100825.91;5029643;28;20037;-70
2022/12/10 04:06:38;;;;;;;77.15;22.80;;;;;;;-2.95;100.00;100834.72;5042676;28;20400;-70
2022/12/10 04:09:04;;;;;;;79.28;23.20;;;;;;;-2.93;100.00;100827.63;5049826;28;20516;-71
2022/12/10 04:11:29;;;;;;;80.75;21.70;;;;;;;-2.91;100.00;100825.78;5049773;28;20175;-71
2022/12/10 04:16:39;;;;;;;67.97;21.73;;;;;;;-2.88;100.00;100836.41;5048586;28;20041;-70
2022/12/10 04:19:08;;;;;;;90.20;25.73;;;;;;;-2.87;100.00;100839.03;5045820;28;20040;-71
2022/12/10 04:27:17;;;;;;;73.60;24.15;;;;;;;-2.88;100.00;100825.75;5029166;28;20044;-71
2022/12/10 04:29:43;;;;;;;77.07;24.33;;;;;;;-2.87;100.00;100824.84;5040045;28;20525;-71
2022/12/10 04:32:09;;;;;;;84.97;25.08;;;;;;;-2.87;100.00;100825.72;5048205;28;20028;-70
2022/12/10 04:34:34;;;;;;;97.60;25.25;;;;;;;-2.86;100.00;100838.09;5048648;28;20082;-70
2022/12/10 04:37:01;;;;;;;99.22;26.55;;;;;;;-2.86;100.00;100831.91;5047712;28;20080;-71
2022/12/10 04:39:26;;;;;;;100.93;27.67;;;;;;;-2.92;100.00;100818.72;5030629;28;20030;-70
2022/12/10 04:41:52;;;;;;;80.45;23.52;;;;;;;-2.83;100.00;100832.75;5046487;28;20036;-71
2022/12/10 04:44:18;;;;;;;85.97;27.95;;;;;;;-2.82;100.00;100834.50;5030226;28;20524;-71
2022/12/10 04:46:44;;;;;;;93.07;25.70;;;;;;;-2.82;100.00;100838.94;5028828;28;20029;-71
2022/12/10 04:49:09;;;;;;;84.50;23.42;;;;;;;-2.79;100.00;100838.91;5027993;28;20111;-70
2022/12/10 04:51:35;;;;;;;93.22;24.30;;;;;;;-2.78;100.00;100845.09;5027993;28;20021;-71
2022/12/10 04:54:01;;;;;;;95.63;26.42;;;;;;;-2.79;100.00;100838.03;5043283;28;20045;-71
2022/12/10 04:56:27;;;;;;;83.75;23.60;;;;;;;-2.77;100.00;100839.72;5026729;28;20048;-71
2022/12/10 04:58:55;;;;;;;84.65;25.42;;;;;;;-2.77;100.00;100847.72;5039856;28;20181;-71
2022/12/10 05:01:21;;;;;;;82.80;24.50;;;;;;;-2.76;100.00;100849.47;5043809;28;20594;-71
2022/12/10 05:03:46;;;;;;;80.47;26.02;;;;;;;-2.76;100.00;100845.94;5027894;28;20112;-71
2022/12/10 05:06:13;;;;;;;81.55;25.60;;;;;;;-2.75;100.00;100851.25;5028063;28;20033;-71
2022/12/10 05:08:40;;;;;;;86.20;22.88;;;;;;;-2.74;100.00;100839.69;5027824;28;20116;-71
2022/12/10 05:11:27;;;;;;;102.32;27.35;;;;;;;-2.73;100.00;100845.88;5045379;28;20036;-71
2022/12/10 05:13:53;;;;;;;89.30;24.95;;;;;;;-2.76;100.00;100849.47;5032063;28;20037;-71
2022/12/10 05:16:22;;;;;;;92.80;27.38;;;;;;;-2.76;100.00;100845.94;5027896;28;20497;-71
2022/12/10 05:18:49;;;;;;;95.53;26.33;;;;;;;-2.77;100.00;100850.38;5027334;28;20385;-71
2022/12/10 05:21:16;;;;;;;78.65;24.02;;;;;;;-2.77;100.00;100845.06;5027503;28;20037;-72
2022/12/10 05:23:45;;;;;;;83.38;24.40;;;;;;;-2.76;100.00;100838.81;5028173;28;20037;-71
2022/12/10 05:26:17;;;;;;;88.50;26.48;;;;;;;-2.73;100.00;100851.22;5028892;28;20473;-71
2022/12/10 05:28:51;;;;;;;102.97;26.92;;;;;;;-2.72;100.00;100848.50;5035682;28;20099;-71
2022/12/10 05:31:19;;;;;;;108.13;25.95;;;;;;;-2.73;100.00;100848.56;5028296;28;20055;-72
2022/12/10 05:33:44;;;;;;;84.82;24.33;;;;;;;-2.73;100.00;100851.22;5025391;28;20112;-71
2022/12/10 05:36:12;;;;;;;84.07;23.65;;;;;;;-2.72;100.00;100844.97;5027514;28;20037;-71
2022/12/10 05:38:39;;;;;;;83.47;24.92;;;;;;;-2.71;100.00;100849.38;5027240;28;20129;-71
2022/12/10 05:41:16;;;;;;;86.07;26.65;;;;;;;-2.70;100.00;100835.19;5031875;28;20508;-71
2022/12/10 05:43:43;;;;;;;85.85;23.92;;;;;;;-2.67;100.00;100843.97;5039633;28;20064;-71
2022/12/10 05:46:19;;;;;;;82.88;25.25;;;;;;;-2.64;100.00;100843.06;5026547;28;20080;-71
2022/12/10 05:48:44;;;;;;;79.03;22.92;;;;;;;-2.62;100.00;100847.44;5025829;28;20033;-71
2022/12/10 05:51:16;;;;;;;89.88;25.98;;;;;;;-2.60;100.00;100844.75;5042662;28;20021;-71
2022/12/10 05:53:42;;;;;;;92.63;25.17;;;;;;;-2.60;100.00;100844.75;5027603;28;20528;-71
2022/12/10 05:56:10;;;;;;;82.35;25.10;;;;;;;-2.59;100.00;100849.19;5025505;28;20141;-71
2022/12/10 05:58:36;;;;;;;92.38;26.48;;;;;;;-2.59;100.00;100854.50;5026653;28;20030;-71
2022/12/10 06:01:08;;;;;;;89.43;23.98;;;;;;;-2.59;100.00;100858.03;5027301;28;20036;-71
2022/12/10 06:03:33;;;;;;;84.90;24.30;;;;;;;-2.60;100.00;100852.75;5026289;28;20628;-72
2022/12/10 06:05:58;;;;;;;94.35;25.55;;;;;;;-2.62;100.00;100852.75;5025882;28;20091;-72
2022/12/10 06:08:24;;;;;;;92.65;26.33;;;;;;;-2.63;100.00;100855.47;5009415;28;20061;-72
2022/12/10 06:10:49;;;;;;;83.32;25.08;;;;;;;-2.65;100.00;100860.81;5026310;28;20032;-71
2022/12/10 06:13:15;;;;;;;91.32;24.85;;;;;;;-2.69;100.00;100856.44;5025630;28;20033;-71
2022/12/10 06:15:41;;;;;;;103.78;24.85;;;;;;;-2.67;100.00;100859.94;5026411;28;20080;-71
2022/12/10 06:18:08;;;;;;;97.60;24.33;;;;;;;-2.67;100.00;100859.94;5024700;28;20029;-73
2022/12/10 06:20:34;;;;;;;92.00;24.65;;;;;;;-2.68;100.00;100857.31;5026297;28;20041;-71
2022/12/10 06:22:59;;;;;;;85.47;23.77;;;;;;;-2.66;100.00;100863.50;5041679;28;20120;-71
2022/12/10 06:25:24;;;;;;;83.57;24.40;;;;;;;-2.65;100.00;100862.59;5027070;28;20055;-71
2022/12/10 06:27:50;;;;;;;90.07;24.58;;;;;;;-2.65;100.00;100859.94;5026740;28;20385;-71
2022/12/10 06:30:15;;;;;;;101.53;26.42;;;;;;;-2.65;100.00;100857.28;5026115;28;20044;-71
2022/12/10 06:32:42;;;;;;;90.88;24.73;;;;;;;-2.66;100.00;100858.16;5026835;28;20160;-71
2022/12/10 06:35:09;;;;;;;76.40;22.42;;;;;;;-2.63;100.00;100861.66;5024456;28;20048;-71
2022/12/10 06:37:35;;;;;;;92.63;24.35;;;;;;;-2.65;100.00;100852.84;5026411;28;20562;-71
2022/12/10 06:40:00;;;;;;;85.60;21.83;;;;;;;-2.65;100.00;100859.94;5025674;28;20065;-71
2022/12/10 06:42:25;;;;;;;82.28;23.13;;;;;;;-2.64;100.00;100861.69;5039685;28;20025;-71
2022/12/10 06:44:51;;;;;;;89.45;22.25;;;;;;;-2.66;100.00;100877.72;5027509;28;20334;-71
2022/12/10 06:47:16;;;;;;;79.13;21.08;;;;;;;-2.64;100.00;100877.66;5032851;28;20124;-72
2022/12/10 06:49:41;;;;;;;79.90;21.85;;;;;;;-2.63;100.00;100880.28;5040393;28;20032;-72
2022/12/10 06:52:07;;;;;;;73.25;22.08;;;;;;;-2.59;100.00;100886.44;5039842;28;20041;-72
2022/12/10 06:54:33;;;;;;;77.07;21.73;;;;;;;-2.60;100.00;100882.03;5034535;28;20347;-72
2022/12/10 06:56:58;;;;;;;79.10;21.77;;;;;;;-2.58;100.00;100886.41;5035894;28;20029;-72
2022/12/10 06:59:24;;;;;;;83.78;22.98;;;;;;;-2.58;100.00;100885.53;5034122;28;20060;-71
2022/12/10 07:01:50;;;;;;;80.90;23.67;;;;;;;-2.61;100.00;100883.81;5038166;28;20073;-72
2022/12/10 07:04:15;;;;;;;78.97;22.25;;;;;;;-2.58;100.00;100891.75;5034191;28;20523;-72
2022/12/10 07:06:41;;;;;;;84.15;24.55;;;;;;;-2.57;100.00;100892.63;5028803;28;20036;-72
2022/12/10 07:09:06;;;;;;;80.93;22.77;;;;;;;-2.56;100.00;100897.06;5041979;28;20116;-72
2022/12/10 07:11:32;;;;;;;82.90;24.10;;;;;;;-2.56;100.00;100889.06;5035493;28;20033;-72
2022/12/10 07:13:58;;;;;;;93.43;25.33;;;;;;;-2.54;100.00;100897.91;5032293;28;20438;-72
2022/12/10 07:16:26;;;;;;;87.60;23.05;;;;;;;-2.53;100.00;100894.31;5040980;28;20116;-72
2022/12/10 07:18:53;;;;;;;79.13;22.33;;;;;;;-2.52;100.00;100892.53;5027965;28;20067;-72
2022/12/10 07:21:24;;;;;;;78.55;23.38;;;;;;;-2.49;100.00;100895.16;5046216;28;20393;-72
2022/12/10 07:23:51;;;;;;;84.70;22.75;;;;;;;-2.48;100.00;100894.25;5034837;28;20477;-72
2022/12/10 07:26:16;;;;;;;86.75;24.73;;;;;;;-2.48;100.00;100904.91;5036845;28;20091;-72
2022/12/10 07:28:42;;;;;;;80.32;22.80;;;;;;;-2.49;100.00;100901.34;5036673;28;20056;-72
2022/12/10 07:31:09;;;;;;;78.35;23.35;;;;;;;-2.48;100.00;100905.78;5029224;28;20025;-72
2022/12/10 07:33:35;;;;;;;90.75;25.20;;;;;;;-2.48;100.00;100916.41;5027788;28;20048;-72
2022/12/10 07:36:06;;;;;;;93.40;25.55;;;;;;;-2.47;100.00;100914.63;5045153;28;20029;-72
2022/12/10 07:38:31;;;;;;;100.90;26.55;;;;;;;-2.50;100.00;100907.59;5040935;28;20033;-72
2022/12/10 07:40:57;;;;;;;86.95;24.20;;;;;;;-2.50;100.00;100910.25;5042459;28;20510;-72
2022/12/10 07:43:22;;;;;;;89.00;24.70;;;;;;;-2.49;100.00;100917.34;5040141;28;20068;-73
2022/12/10 07:45:47;;;;;;;98.32;25.20;;;;;;;-2.49;100.00;100911.13;5045128;28;20425;-72
2022/12/10 07:48:14;;;;;;;84.45;24.40;;;;;;;-2.49;100.00;100920.00;5029805;28;20564;-72
2022/12/10 07:50:39;;;;;;;99.75;27.10;;;;;;;-2.49;100.00;100919.13;5029639;28;20233;-72
2022/12/10 07:53:04;;;;;;;85.75;23.10;;;;;;;-2.52;100.00;100917.38;5041830;28;20104;-72
2022/12/10 07:55:30;;;;;;;80.07;23.80;;;;;;;-2.52;100.00;100920.03;5045975;28;20543;-71
2022/12/10 07:57:55;;;;;;;84.07;23.48;;;;;;;-2.52;100.00;100922.72;5042348;28;20538;-72
2022/12/10 08:00:21;;;;;;;75.95;23.17;;;;;;;-2.47;100.00;100922.63;5039261;28;20467;-72
2022/12/10 08:02:46;;;;;;;82.65;24.20;;;;;;;-2.47;100.00;100925.28;5010608;28;20036;-73
2022/12/10 08:05:11;;;;;;;98.25;24.02;;;;;;;-2.46;100.00;100929.72;5039685;28;20044;-72
2022/12/10 08:07:37;;;;;;;85.20;22.80;;;;;;;-2.47;100.00;100919.97;5040516;28;20083;-72
2022/12/10 08:10:03;;;;;;;87.18;25.60;;;;;;;-2.48;100.00;100927.06;5028740;28;20861;-72
2022/12/10 08:12:28;;;;;;;87.15;24.02;;;;;;;-2.49;100.00;100928.00;5041164;28;20049;-72
2022/12/10 08:14:53;;;;;;;85.38;22.98;;;;;;;-2.46;100.00;100946.59;5031518;28;20473;-73
2022/12/10 08:17:19;;;;;;;78.05;20.88;;;;;;;-2.44;100.00;100947.44;5047111;28;20033;-72
2022/12/10 08:19:44;;;;;;;92.80;22.02;;;;;;;-2.45;100.00;100943.00;5048348;28;20036;-72
2022/12/10 08:22:09;;;;;;;92.57;23.20;;;;;;;-2.45;100.00;100944.81;5028670;28;20048;-72
2022/12/10 08:24:35;;;;;;;83.15;22.05;;;;;;;-2.43;100.00;100949.19;5043568;28;20071;-73
2022/12/10 08:27:00;;;;;;;82.05;21.92;;;;;;;-2.42;100.00;100955.41;5045334;28;20049;-73
2022/12/10 08:29:25;;;;;;;99.43;23.65;;;;;;;-2.40;100.00;100949.13;5033707;28;20029;-72
2022/12/10 08:31:51;;;;;;;88.80;20.92;;;;;;;-2.39;100.00;100961.53;5038477;28;20029;-72
2022/12/10 08:34:18;;;;;;;81.30;21.25;;;;;;;-2.40;100.00;100957.13;5041383;28;20503;-73
2022/12/10 08:36:44;;;;;;;87.47;20.98;;;;;;;-2.38;100.00;100954.44;5041901;28;20526;-73
2022/12/10 08:39:14;;;;;;;71.82;21.08;;;;;;;-2.38;100.00;100962.41;5047924;28;20279;-73
2022/12/10 08:41:40;;;;;;;76.28;20.63;;;;;;;-2.42;100.00;100958.94;5049130;28;20060;-73
2022/12/10 08:44:06;;;;;;;72.32;20.58;;;;;;;-2.36;100.00;100964.16;5031787;28;20444;-73
2022/12/10 08:46:31;;;;;;;92.07;22.88;;;;;;;-2.33;100.00;100971.25;5032702;28;20037;-73
2022/12/10 08:48:57;;;;;;;75.80;22.27;;;;;;;-2.32;100.00;100973.00;5027925;28;20075;-73
2022/12/10 08:51:22;;;;;;;80.57;21.63;;;;;;;-2.34;100.00;100975.66;5032090;28;20016;-73
2022/12/10 08:53:48;;;;;;;74.90;20.83;;;;;;;-2.29;100.00;100974.69;5045072;28;20091;-73
2022/12/10 08:56:13;;;;;;;89.95;22.45;;;;;;;-2.29;100.00;100977.38;5044158;28;20036;-74
2022/12/10 08:58:39;;;;;;;80.88;19.80;;;;;;;-2.28;100.00;100976.47;5031895;28;20037;-74
2022/12/10 09:01:07;;;;;;;67.70;19.45;;;;;;;-2.28;100.00;100979.16;5041765;28;20037;-74
2022/12/10 09:03:33;;;;;;;78.32;20.73;;;;;;;-2.24;100.00;100978.16;5043783;28;20048;-74
2022/12/10 09:06:02;;;;;;;79.13;21.45;;;;;;;-2.22;100.00;100979.03;5043606;28;20041;-74
2022/12/10 09:08:28;;;;;;;73.07;20.67;;;;;;;-2.24;100.00;100968.38;5042779;28;20036;-74
2022/12/10 09:10:53;;;;;;;71.57;21.40;;;;;;;-2.19;100.00;100981.63;5045699;28;20033;-74
2022/12/10 09:13:18;;;;;;;69.57;21.27;;;;;;;-2.16;100.00;100981.56;5029903;28;20033;-73
2022/12/10 09:15:51;;;;;;;77.22;20.30;;;;;;;-2.16;100.00;100981.56;5027888;28;20100;-73
2022/12/10 09:18:17;;;;;;;71.57;20.13;;;;;;;-2.15;100.00;100983.31;5042803;28;20029;-74
2022/12/10 09:20:42;;;;;;;74.80;20.83;;;;;;;-2.11;100.00;100985.91;5029481;28;20049;-74
2022/12/10 09:23:08;;;;;;;71.95;20.77;;;;;;;-2.13;100.00;100985.06;5046886;28;20033;-74
2022/12/10 09:25:33;;;;;;;64.95;19.70;;;;;;;-2.07;100.00;100984.06;5035864;28;20117;-74
2022/12/10 09:27:58;;;;;;;77.57;20.75;;;;;;;-2.06;100.00;100984.03;5027521;28;20030;-74
2022/12/10 09:30:24;;;;;;;78.30;22.38;;;;;;;-2.03;100.00;100988.44;5027392;28;20035;-73
2022/12/10 09:32:49;;;;;;;82.28;21.77;;;;;;;-2.02;100.00;100986.66;5044488;28;20024;-74
2022/12/10 09:35:15;;;;;;;60.90;19.30;;;;;;;-2.00;100.00;100991.06;5041276;28;20087;-74
2022/12/10 09:37:40;;;;;;;67.65;19.33;;;;;;;-1.96;100.00;100995.44;5031537;28;20040;-74
2022/12/10 09:40:06;;;;;;;59.50;20.10;;;;;;;-1.93;100.00;101002.47;5043824;28;20119;-74
2022/12/10 09:43:00;;;;;;;64.28;19.08;;;;;;;-1.88;100.00;101011.25;5031599;28;20028;-74
2022/12/10 09:45:44;;;;;;;75.40;18.55;;;;;;;-1.88;100.00;101006.81;5040168;28;20095;-74
2022/12/10 09:48:38;;;;;;;67.97;19.45;;;;;;;-1.86;100.00;101010.34;5043949;28;20041;-74
2022/12/10 09:51:36;;;;;;;69.85;19.75;;;;;;;-1.81;100.00;101005.81;5040387;28;20510;-74
2022/12/10 09:54:04;;;;;;;72.43;19.92;;;;;;;-1.78;100.00;101012.84;5017375;28;20055;-74
2022/12/10 09:56:35;;;;;;;70.65;19.33;;;;;;;-1.73;100.00;101008.31;5046702;28;20033;-74
2022/12/10 09:59:17;;;;;;;54.33;18.35;;;;;;;-1.72;100.00;101006.53;5032006;28;20488;-75
2022/12/10 10:01:43;;;;;;;58.70;17.95;;;;;;;-1.71;100.00;101014.50;5026205;28;20037;-74
2022/12/10 10:04:09;;;;;;;61.72;18.48;;;;;;;-1.74;100.00;101019.88;5027352;28;20021;-75
2022/12/10 10:06:34;;;;;;;56.85;17.27;;;;;;;-1.76;100.00;101012.84;5025268;28;20491;-75
2022/12/10 10:09:01;;;;;;;56.72;18.23;;;;;;;-1.72;100.00;101017.22;5025648;28;20025;-74
2022/12/10 10:11:33;;;;;;;65.10;18.55;;;;;;;-1.71;100.00;101022.50;5034054;28;20036;-75
2022/12/10 10:14:12;;;;;;;63.70;19.65;;;;;;;-1.63;100.00;101025.91;5030361;28;20561;-74
2022/12/10 10:16:47;;;;;;;61.15;18.35;;;;;;;-1.63;100.00;101030.38;5043274;28;20474;-74
2022/12/10 10:19:21;;;;;;;67.63;20.13;;;;;;;-1.61;100.00;101033.88;5045118;28;20044;-74
2022/12/10 10:21:48;;;;;;;60.83;19.58;;;;;;;-1.57;100.00;101030.22;5044940;28;20537;-74
2022/12/10 10:24:21;;;;;;;59.33;17.15;;;;;;;-1.53;100.00;101031.94;5035172;28;20038;-73
2022/12/10 10:26:47;;;;;;;58.30;17.63;;;;;;;-1.48;100.00;101029.19;5030508;28;20480;-74
2022/12/10 10:29:16;;;;;;;62.10;17.02;;;;;;;-1.46;100.00;101032.69;5033724;28;20041;-74
2022/12/10 10:31:42;;;;;;;62.30;20.52;;;;;;;-1.46;100.00;101020.22;5044560;28;20045;-74
2022/12/10 10:34:19;;;;;;;62.75;19.33;;;;;;;-1.44;100.00;101026.41;5042332;28;20056;-75
2022/12/10 10:36:45;;;;;;;65.35;20.42;;;;;;;-1.45;100.00;101021.97;5044417;28;20057;-74
2022/12/10 10:39:26;;;;;;;61.25;19.33;;;;;;;-1.44;100.00;101017.53;5046307;28;20102;-75
2022/12/10 10:41:53;;;;;;;63.45;19.75;;;;;;;-1.40;100.00;101022.78;5034815;28;20500;-74
2022/12/10 10:44:21;;;;;;;65.43;17.85;;;;;;;-1.34;100.00;101019.97;5034548;28;20040;-74
2022/12/10 10:46:50;;;;;;;57.22;18.23;;;;;;;-1.30;100.00;101018.13;5046297;28;20445;-74
2022/12/10 10:49:33;;;;;;;64.38;18.63;;;;;;;-1.34;100.00;101019.97;5043813;28;20037;-75
2022/12/10 10:52:20;;;;;;;54.63;15.90;;;;;;;-1.39;100.00;101004.97;5025845;28;20048;-74
2022/12/10 10:54:47;;;;;;;56.33;16.40;;;;;;;-1.37;100.00;101009.34;5042818;28;20072;-74
2022/12/10 10:57:33;;;;;;;55.47;17.10;;;;;;;-1.38;100.00;101009.41;5036948;28;20543;-73
2022/12/10 11:00:22;;;;;;;63.63;17.10;;;;;;;-1.34;100.00;101014.63;5025062;28;20037;-74
2022/12/10 11:02:47;;;;;;;55.85;17.05;;;;;;;-1.34;100.00;101016.44;5025467;28;20029;-73
2022/12/10 11:05:26;;;;;;;56.92;18.77;;;;;;;-1.30;100.00;101013.66;5025960;28;20041;-73
2022/12/10 11:08:01;;;;;;;55.28;17.92;;;;;;;-1.28;100.00;101008.28;5025611;28;20048;-74
2022/12/10 11:10:27;;;;;;;64.18;18.42;;;;;;;-1.27;100.00;101010.03;5026229;28;20037;-74
2022/12/10 11:13:00;;;;;;;65.53;19.23;;;;;;;-1.28;100.00;101008.28;5042414;28;20128;-74
2022/12/10 11:15:30;;;;;;;;;;;;;;;-1.26;100.00;101008.25;5026204;28;20091;-74
2022/12/10 11:17:57;;;;;;;55.55;17.23;;;;;;;-1.30;100.00;100994.13;5024818;28;19913;-73